Time;durP1;ratioP1;P1;durP2;ratioP2;P2;SDS_P1;SDS_P2;PMS_P1;PMS_P2;Temp;Humidity;BMP_temperature;BMP_pressure;BME280_temperature;BME280_humidity;BME280_pressure;Samples;Min_cycle;Max_cycle;Signal;HPM_P1;HPM_P2
2022/03/31 00:02:25;;;;;;;1.85;1.33;;;;;;;;;;4936864;29;20639;-63
2022/03/31 00:04:52;;;;;;;2.33;1.33;;;;;;;;;;4936724;29;20227;-63
2022/03/31 00:07:17;;;;;;;2.85;1.40;;;;;;;;;;4936971;29;20484;-63
2022/03/31 00:09:43;;;;;;;1.98;1.10;;;;;;;;;;4936900;29;20172;-63
2022/03/31 00:12:10;;;;;;;2.15;1.40;;;;;;;;;;4936749;29;20487;-62
2022/03/31 00:14:35;;;;;;;2.80;1.15;;;;;;;;;;4936782;29;20680;-63
2022/03/31 00:17:01;;;;;;;2.47;1.30;;;;;;;;;;4936630;29;20196;-60
2022/03/31 00:19:27;;;;;;;2.70;1.35;;;;;;;;;;4935542;29;20185;-61
2022/03/31 00:21:53;;;;;;;2.03;1.27;;;;;;;;;;4936625;29;20347;-63
2022/03/31 00:24:19;;;;;;;2.28;1.50;;;;;;;;;;4936477;29;20179;-63
2022/03/31 00:26:45;;;;;;;1.50;1.35;;;;;;;;;;4936549;29;20168;-63
2022/03/31 00:29:11;;;;;;;2.85;1.17;;;;;;;;;;4936422;29;20228;-63
2022/03/31 00:31:38;;;;;;;1.98;1.23;;;;;;;;;;4936566;29;20283;-63
2022/03/31 00:34:04;;;;;;;2.40;1.10;;;;;;;;;;4936688;29;20180;-62
2022/03/31 00:36:30;;;;;;;2.80;1.20;;;;;;;;;;4936373;29;20260;-63
2022/03/31 00:41:40;;;;;;;2.20;1.45;;;;;;;;;;4936494;29;20199;-62
2022/03/31 00:44:07;;;;;;;2.03;1.20;;;;;;;;;;4936614;29;20256;-62
2022/03/31 00:46:34;;;;;;;2.45;1.30;;;;;;;;;;4936476;29;20224;-62
2022/03/31 00:49:01;;;;;;;1.55;0.90;;;;;;;;;;4936937;29;20180;-61
2022/03/31 00:51:27;;;;;;;1.38;1.08;;;;;;;;;;4941838;29;20485;-62
2022/03/31 00:53:53;;;;;;;2.45;1.27;;;;;;;;;;4942828;29;20483;-63
2022/03/31 00:56:19;;;;;;;2.17;1.30;;;;;;;;;;4945980;29;20180;-63
2022/03/31 00:58:45;;;;;;;2.15;1.30;;;;;;;;;;4947659;29;20179;-63
2022/03/31 01:01:14;;;;;;;1.83;1.40;;;;;;;;;;4948509;29;20193;-63
2022/03/31 01:03:40;;;;;;;2.13;1.38;;;;;;;;;;4950836;29;20180;-63
2022/03/31 01:06:06;;;;;;;3.20;1.40;;;;;;;;;;4953004;29;20169;-63
2022/03/31 01:08:32;;;;;;;1.98;1.10;;;;;;;;;;4952770;29;20181;-62
2022/03/31 01:10:58;;;;;;;2.30;1.40;;;;;;;;;;4952001;29;20515;-63
2022/03/31 01:13:25;;;;;;;2.58;1.25;;;;;;;;;;4940711;29;20209;-62
2022/03/31 01:15:51;;;;;;;3.50;1.60;;;;;;;;;;4941206;29;20255;-63
2022/03/31 01:18:17;;;;;;;2.38;1.48;;;;;;;;;;4954021;29;20192;-63
2022/03/31 01:20:43;;;;;;;2.70;1.40;;;;;;;;;;4959496;29;20205;-63
2022/03/31 01:23:12;;;;;;;1.77;1.48;;;;;;;;;;4958314;29;20157;-63
2022/03/31 01:25:38;;;;;;;3.58;1.50;;;;;;;;;;4957584;29;20224;-63
2022/03/31 01:28:04;;;;;;;1.80;1.27;;;;;;;;;;4955183;29;20539;-64
2022/03/31 01:30:30;;;;;;;2.75;1.80;;;;;;;;;;4949273;29;20177;-62
2022/03/31 01:32:56;;;;;;;2.70;1.70;;;;;;;;;;4940090;29;20505;-61
2022/03/31 01:35:23;;;;;;;2.78;1.23;;;;;;;;;;4939724;29;20268;-63
2022/03/31 01:37:49;;;;;;;2.38;1.27;;;;;;;;;;4939692;29;20253;-62
2022/03/31 01:40:15;;;;;;;3.25;1.50;;;;;;;;;;4939559;29;20499;-63
2022/03/31 01:42:42;;;;;;;3.10;1.60;;;;;;;;;;4939955;29;20473;-63
2022/03/31 01:45:10;;;;;;;1.60;1.20;;;;;;;;;;4939775;29;20197;-62
2022/03/31 01:47:36;;;;;;;3.22;1.48;;;;;;;;;;4939937;29;20184;-62
2022/03/31 01:50:02;;;;;;;3.03;1.60;;;;;;;;;;4939542;29;20189;-63
2022/03/31 01:52:29;;;;;;;2.55;1.50;;;;;;;;;;4939642;29;20224;-62
2022/03/31 01:54:55;;;;;;;1.73;1.33;;;;;;;;;;4939369;29;20259;-63
2022/03/31 01:57:21;;;;;;;2.90;1.58;;;;;;;;;;4938232;29;20569;-62
2022/03/31 01:59:47;;;;;;;2.83;1.38;;;;;;;;;;4939343;29;20173;-63
2022/03/31 02:02:16;;;;;;;4.30;2.15;;;;;;;;;;4939225;29;20197;-62
2022/03/31 02:04:42;;;;;;;2.92;1.70;;;;;;;;;;4939063;29;20180;-63
2022/03/31 02:07:08;;;;;;;3.03;1.63;;;;;;;;;;4937959;28;20165;-63
2022/03/31 02:09:34;;;;;;;2.45;1.58;;;;;;;;;;4938835;29;20260;-63
2022/03/31 02:12:01;;;;;;;3.45;1.83;;;;;;;;;;4938757;29;20271;-63
2022/03/31 02:14:27;;;;;;;5.80;1.63;;;;;;;;;;4938036;29;20215;-63
2022/03/31 02:16:55;;;;;;;1.95;1.50;;;;;;;;;;4938884;29;20193;-63
2022/03/31 02:19:21;;;;;;;1.90;1.50;;;;;;;;;;4938948;29;20235;-63
2022/03/31 02:21:47;;;;;;;2.67;1.55;;;;;;;;;;4938822;29;20574;-62
2022/03/31 02:24:13;;;;;;;3.67;1.52;;;;;;;;;;4938806;29;20173;-63
2022/03/31 02:26:39;;;;;;;3.45;1.65;;;;;;;;;;4938813;29;20173;-62
2022/03/31 02:29:05;;;;;;;2.53;1.58;;;;;;;;;;4939030;29;20170;-62
2022/03/31 02:31:32;;;;;;;3.70;1.60;;;;;;;;;;4938748;29;20177;-62
2022/03/31 02:33:58;;;;;;;2.78;1.40;;;;;;;;;;4939125;29;20180;-63
2022/03/31 02:36:26;;;;;;;3.33;1.73;;;;;;;;;;4938616;29;20505;-63
2022/03/31 02:38:52;;;;;;;2.33;1.38;;;;;;;;;;4939228;29;20212;-63
2022/03/31 02:41:19;;;;;;;2.35;1.55;;;;;;;;;;4938480;29;20193;-63
2022/03/31 02:43:45;;;;;;;2.30;1.50;;;;;;;;;;4938782;29;20259;-63
2022/03/31 02:46:10;;;;;;;3.55;1.60;;;;;;;;;;4938412;29;20637;-63
2022/03/31 02:48:36;;;;;;;2.65;1.50;;;;;;;;;;4938425;29;20171;-63
2022/03/31 02:51:02;;;;;;;2.35;1.35;;;;;;;;;;4938637;29;20272;-63
2022/03/31 02:56:13;;;;;;;4.28;1.60;;;;;;;;;;4938498;29;20168;-61
2022/03/31 02:58:39;;;;;;;3.30;1.50;;;;;;;;;;4938956;29;20555;-62
2022/03/31 03:01:05;;;;;;;3.13;1.52;;;;;;;;;;4938451;29;20655;-62
2022/03/31 03:03:32;;;;;;;3.90;1.77;;;;;;;;;;4941689;29;20627;-62
2022/03/31 03:05:58;;;;;;;1.92;1.50;;;;;;;;;;4938032;29;20173;-62
2022/03/31 03:08:27;;;;;;;2.55;1.60;;;;;;;;;;4937901;29;20261;-62
2022/03/31 03:10:53;;;;;;;2.97;1.50;;;;;;;;;;4937515;29;20555;-61
2022/03/31 03:13:19;;;;;;;3.28;1.70;;;;;;;;;;4937673;29;20227;-61
2022/03/31 03:15:45;;;;;;;1.75;1.35;;;;;;;;;;4937851;29;20288;-61
2022/03/31 03:18:11;;;;;;;3.00;1.80;;;;;;;;;;4937246;29;20271;-61
2022/03/31 03:20:37;;;;;;;2.47;1.50;;;;;;;;;;4937460;29;20517;-64
2022/03/31 03:23:03;;;;;;;2.50;1.90;;;;;;;;;;4937440;29;20231;-63
2022/03/31 03:25:29;;;;;;;2.58;1.30;;;;;;;;;;4937320;29;20260;-63
2022/03/31 03:27:55;;;;;;;3.15;1.80;;;;;;;;;;4937497;29;20168;-63
2022/03/31 03:30:21;;;;;;;3.88;1.75;;;;;;;;;;4937217;29;20621;-63
2022/03/31 03:32:47;;;;;;;4.20;1.88;;;;;;;;;;4937572;29;20244;-63
2022/03/31 03:35:14;;;;;;;3.05;1.80;;;;;;;;;;4937836;29;20623;-62
2022/03/31 03:37:41;;;;;;;4.70;1.88;;;;;;;;;;4937233;29;20234;-62
2022/03/31 03:40:08;;;;;;;2.13;1.60;;;;;;;;;;4936162;29;20180;-63
2022/03/31 03:42:35;;;;;;;1.40;1.30;;;;;;;;;;4937400;29;20263;-62
2022/03/31 03:45:01;;;;;;;3.92;1.65;;;;;;;;;;4937091;29;20223;-62
2022/03/31 03:47:27;;;;;;;2.20;1.48;;;;;;;;;;4937237;29;20502;-62
2022/03/31 03:49:53;;;;;;;2.00;1.40;;;;;;;;;;4937250;29;20168;-62
2022/03/31 03:52:19;;;;;;;2.75;1.30;;;;;;;;;;4937172;29;20185;-62
2022/03/31 03:54:45;;;;;;;2.15;1.55;;;;;;;;;;4937156;29;20251;-62
2022/03/31 03:57:11;;;;;;;2.17;1.55;;;;;;;;;;4936883;29;20264;-61
2022/03/31 03:59:38;;;;;;;3.13;1.55;;;;;;;;;;4937074;29;20183;-63
2022/03/31 04:02:04;;;;;;;3.45;1.60;;;;;;;;;;4936819;29;20598;-62
2022/03/31 04:04:30;;;;;;;2.55;1.80;;;;;;;;;;4936910;29;20575;-62
2022/03/31 04:06:57;;;;;;;4.22;1.50;;;;;;;;;;4937035;29;20168;-61
2022/03/31 04:09:23;;;;;;;2.20;1.50;;;;;;;;;;4941432;29;20225;-62
2022/03/31 04:11:49;;;;;;;2.33;1.45;;;;;;;;;;4945826;29;20565;-63
2022/03/31 04:14:15;;;;;;;2.30;1.38;;;;;;;;;;4936720;29;20173;-63
2022/03/31 04:16:41;;;;;;;2.50;1.50;;;;;;;;;;4936480;29;20621;-62
2022/03/31 04:19:08;;;;;;;2.40;1.40;;;;;;;;;;4936720;29;20244;-62
2022/03/31 04:21:34;;;;;;;4.07;1.60;;;;;;;;;;4936600;29;20205;-63
2022/03/31 04:24:00;;;;;;;3.30;1.70;;;;;;;;;;4936711;29;20173;-62
2022/03/31 04:26:26;;;;;;;1.98;1.25;;;;;;;;;;4936415;29;20176;-62
2022/03/31 04:28:52;;;;;;;2.58;1.38;;;;;;;;;;4936463;29;20180;-62
2022/03/31 04:31:17;;;;;;;2.92;1.30;;;;;;;;;;4935849;29;20199;-62
2022/03/31 04:33:43;;;;;;;1.83;1.27;;;;;;;;;;4936448;29;20168;-62
2022/03/31 04:36:09;;;;;;;1.88;1.45;;;;;;;;;;4936331;29;20169;-61
2022/03/31 04:38:35;;;;;;;3.03;1.75;;;;;;;;;;4936451;29;20191;-62
2022/03/31 04:41:01;;;;;;;2.83;1.40;;;;;;;;;;4936447;29;20196;-63
2022/03/31 04:43:27;;;;;;;2.00;1.30;;;;;;;;;;4936339;29;20172;-63
2022/03/31 04:45:53;;;;;;;4.97;1.88;;;;;;;;;;4936616;29;20165;-63
2022/03/31 04:48:19;;;;;;;4.30;1.65;;;;;;;;;;4936325;29;20164;-63
2022/03/31 04:50:45;;;;;;;2.30;1.35;;;;;;;;;;4936635;29;20169;-63
2022/03/31 04:53:12;;;;;;;1.90;1.35;;;;;;;;;;4936583;29;20458;-63
2022/03/31 04:55:38;;;;;;;2.58;1.48;;;;;;;;;;4936434;29;20265;-63
2022/03/31 04:58:04;;;;;;;3.35;1.25;;;;;;;;;;4936578;29;20201;-62
2022/03/31 05:00:31;;;;;;;2.75;1.35;;;;;;;;;;4936474;29;20169;-62
2022/03/31 05:02:59;;;;;;;2.75;1.55;;;;;;;;;;4936553;29;20191;-62
2022/03/31 05:05:25;;;;;;;2.33;1.52;;;;;;;;;;4936299;29;20165;-62
2022/03/31 05:07:51;;;;;;;4.13;1.90;;;;;;;;;;4936264;29;20231;-63
2022/03/31 05:10:17;;;;;;;4.20;1.73;;;;;;;;;;4936281;29;20169;-62
2022/03/31 05:12:43;;;;;;;1.95;1.20;;;;;;;;;;4936823;29;20485;-62
2022/03/31 05:15:10;;;;;;;2.50;1.70;;;;;;;;;;4936321;29;20173;-63
2022/03/31 05:17:36;;;;;;;5.35;1.65;;;;;;;;;;4936613;29;20333;-62
2022/03/31 05:20:09;;;;;;;2.28;1.80;;;;;;;;;;4936536;29;20220;-62
2022/03/31 05:22:36;;;;;;;1.67;1.25;;;;;;;;;;4936034;29;20197;-63
2022/03/31 05:25:03;;;;;;;2.33;1.60;;;;;;;;;;4936336;29;20196;-62
2022/03/31 05:27:29;;;;;;;6.53;1.90;;;;;;;;;;4936234;29;20231;-62
2022/03/31 05:29:55;;;;;;;3.97;1.70;;;;;;;;;;4936306;29;20169;-63
2022/03/31 05:32:21;;;;;;;2.70;1.83;;;;;;;;;;4936126;29;20215;-62
2022/03/31 05:34:47;;;;;;;5.18;1.77;;;;;;;;;;4935909;29;20193;-63
2022/03/31 05:37:14;;;;;;;3.38;1.48;;;;;;;;;;4936236;29;20173;-63
2022/03/31 05:39:40;;;;;;;3.88;1.90;;;;;;;;;;4936217;29;20251;-63
2022/03/31 05:42:06;;;;;;;3.17;1.58;;;;;;;;;;4937978;29;20272;-63
2022/03/31 05:44:32;;;;;;;2.67;1.70;;;;;;;;;;4939457;29;20170;-63
2022/03/31 05:46:58;;;;;;;2.38;1.70;;;;;;;;;;4939367;29;20172;-63
2022/03/31 05:49:25;;;;;;;2.75;1.60;;;;;;;;;;4939773;29;20169;-63
2022/03/31 05:51:51;;;;;;;3.05;1.85;;;;;;;;;;4939657;29;20256;-63
2022/03/31 05:54:16;;;;;;;2.75;1.33;;;;;;;;;;4939472;29;20622;-63
2022/03/31 05:56:43;;;;;;;2.63;1.30;;;;;;;;;;4939355;29;20255;-62
2022/03/31 05:59:09;;;;;;;2.70;1.58;;;;;;;;;;4938856;29;20478;-63
2022/03/31 06:01:35;;;;;;;1.75;1.23;;;;;;;;;;4939504;29;20220;-63
2022/03/31 06:04:01;;;;;;;3.00;1.23;;;;;;;;;;4939086;29;20689;-63
2022/03/31 06:06:27;;;;;;;3.30;1.50;;;;;;;;;;4939242;29;20557;-63
2022/03/31 06:08:53;;;;;;;4.80;1.52;;;;;;;;;;4939256;29;20491;-63
2022/03/31 06:11:19;;;;;;;3.90;1.30;;;;;;;;;;4939184;29;20176;-63
2022/03/31 06:13:44;;;;;;;4.10;1.30;;;;;;;;;;4939203;29;20215;-63
2022/03/31 06:16:11;;;;;;;2.70;1.35;;;;;;;;;;4938829;29;20165;-63
2022/03/31 06:18:37;;;;;;;2.05;1.30;;;;;;;;;;4939107;29;20197;-63
2022/03/31 06:21:03;;;;;;;1.95;1.27;;;;;;;;;;4938734;29;20592;-63
2022/03/31 06:23:29;;;;;;;1.88;1.30;;;;;;;;;;4938424;29;20244;-63
2022/03/31 06:25:55;;;;;;;2.40;1.48;;;;;;;;;;4938629;29;20197;-63
2022/03/31 06:28:21;;;;;;;2.38;1.45;;;;;;;;;;4938895;29;20176;-63
2022/03/31 06:30:48;;;;;;;1.48;1.30;;;;;;;;;;4939196;29;20173;-62
2022/03/31 06:33:15;;;;;;;2.83;1.45;;;;;;;;;;4938481;29;20497;-63
2022/03/31 06:35:41;;;;;;;2.97;1.52;;;;;;;;;;4938518;29;20169;-62
2022/03/31 06:38:07;;;;;;;2.15;1.42;;;;;;;;;;4938389;29;20169;-61
2022/03/31 06:40:37;;;;;;;3.65;1.50;;;;;;;;;;4938537;29;20243;-62
2022/03/31 06:43:03;;;;;;;6.25;1.35;;;;;;;;;;4938372;29;20180;-62
2022/03/31 06:45:30;;;;;;;5.00;1.50;;;;;;;;;;4938428;29;20644;-61
2022/03/31 06:47:56;;;;;;;1.80;1.40;;;;;;;;;;4938289;29;20165;-63
2022/03/31 06:50:22;;;;;;;2.80;1.48;;;;;;;;;;4937914;29;20634;-62
2022/03/31 06:52:50;;;;;;;2.40;1.20;;;;;;;;;;4937641;29;20177;-63
2022/03/31 06:55:16;;;;;;;4.13;1.73;;;;;;;;;;4937952;29;20479;-63
2022/03/31 06:57:42;;;;;;;3.17;1.35;;;;;;;;;;4937675;29;20175;-63
2022/03/31 07:00:08;;;;;;;2.88;1.20;;;;;;;;;;4937835;29;20179;-63
2022/03/31 07:02:34;;;;;;;2.97;1.30;;;;;;;;;;4937767;29;20206;-62
2022/03/31 07:05:00;;;;;;;1.60;1.40;;;;;;;;;;4937754;29;20248;-63
2022/03/31 07:07:26;;;;;;;3.53;1.17;;;;;;;;;;4937858;29;20394;-63
2022/03/31 07:09:52;;;;;;;2.88;1.67;;;;;;;;;;4937641;29;20255;-64
2022/03/31 07:12:19;;;;;;;3.63;1.40;;;;;;;;;;4937657;29;20177;-62
2022/03/31 07:14:45;;;;;;;4.40;1.73;;;;;;;;;;4937417;29;20592;-63
2022/03/31 07:17:12;;;;;;;1.63;1.30;;;;;;;;;;4937267;29;20621;-63
2022/03/31 07:19:38;;;;;;;6.00;1.67;;;;;;;;;;4937725;29;20208;-63
2022/03/31 07:22:04;;;;;;;14.50;2.50;;;;;;;;;;4937671;29;20236;-63
2022/03/31 07:24:30;;;;;;;3.00;1.40;;;;;;;;;;4937178;29;20232;-63
2022/03/31 07:26:56;;;;;;;4.22;1.92;;;;;;;;;;4937421;29;20521;-63
2022/03/31 07:29:22;;;;;;;3.08;1.52;;;;;;;;;;4937311;29;20169;-63
2022/03/31 07:31:49;;;;;;;3.45;1.50;;;;;;;;;;4937548;29;20169;-63
2022/03/31 07:34:14;;;;;;;3.90;1.35;;;;;;;;;;4937465;29;20332;-63
2022/03/31 07:36:40;;;;;;;2.20;1.52;;;;;;;;;;4937282;29;20224;-63
2022/03/31 07:39:08;;;;;;;3.20;1.60;;;;;;;;;;4937145;29;20200;-63
2022/03/31 07:41:34;;;;;;;2.17;1.48;;;;;;;;;;4937320;29;20196;-63
2022/03/31 07:43:59;;;;;;;2.53;1.70;;;;;;;;;;4937270;29;20252;-62
2022/03/31 07:46:29;;;;;;;3.25;1.48;;;;;;;;;;4937141;29;20508;-63
2022/03/31 07:48:55;;;;;;;2.00;1.50;;;;;;;;;;4937257;29;20173;-63
2022/03/31 07:51:21;;;;;;;2.60;1.38;;;;;;;;;;4936890;29;20321;-63
2022/03/31 07:53:47;;;;;;;2.67;1.50;;;;;;;;;;4936885;29;20598;-63
2022/03/31 07:56:13;;;;;;;3.13;1.55;;;;;;;;;;4937021;29;20208;-63
2022/03/31 07:58:39;;;;;;;3.13;1.50;;;;;;;;;;4937022;29;20184;-64
2022/03/31 08:01:05;;;;;;;2.92;1.48;;;;;;;;;;4936674;29;20540;-63
2022/03/31 08:03:31;;;;;;;2.08;1.23;;;;;;;;;;4936643;29;20187;-63
2022/03/31 08:05:57;;;;;;;2.47;1.08;;;;;;;;;;4936124;29;20176;-63
2022/03/31 08:08:23;;;;;;;2.97;1.10;;;;;;;;;;4936814;29;20220;-64
2022/03/31 08:10:50;;;;;;;1.70;1.02;;;;;;;;;;4936903;29;20165;-63
2022/03/31 08:13:22;;;;;;;2.20;1.08;;;;;;;;;;4936983;29;20173;-64
2022/03/31 08:15:48;;;;;;;8.32;1.27;;;;;;;;;;4936966;29;20219;-64
2022/03/31 08:18:14;;;;;;;1.98;1.10;;;;;;;;;;4936645;29;20521;-64
2022/03/31 08:20:41;;;;;;;4.80;1.25;;;;;;;;;;4936751;29;20176;-65
2022/03/31 08:23:08;;;;;;;0.80;0.70;;;;;;;;;;4936440;29;20555;-64
2022/03/31 08:25:34;;;;;;;2.35;1.00;;;;;;;;;;4936720;29;20236;-63
2022/03/31 08:28:00;;;;;;;3.40;0.90;;;;;;;;;;4936711;29;20217;-65
2022/03/31 08:30:27;;;;;;;7.65;0.95;;;;;;;;;;4936454;29;20502;-63
2022/03/31 08:32:54;;;;;;;3.80;0.73;;;;;;;;;;4936652;29;20172;-63
2022/03/31 08:35:20;;;;;;;3.47;0.77;;;;;;;;;;4935608;29;20217;-63
2022/03/31 08:37:46;;;;;;;1.45;1.00;;;;;;;;;;4936458;29;20505;-64
2022/03/31 08:40:13;;;;;;;4.68;1.08;;;;;;;;;;4936264;29;20605;-64
2022/03/31 08:42:39;;;;;;;1.25;0.90;;;;;;;;;;4936275;29;20220;-65
2022/03/31 08:45:07;;;;;;;3.97;1.00;;;;;;;;;;4936455;29;20238;-62
2022/03/31 08:47:34;;;;;;;1.58;0.63;;;;;;;;;;4936430;29;20201;-64
2022/03/31 08:50:00;;;;;;;3.60;1.05;;;;;;;;;;4936417;29;20215;-65
2022/03/31 08:52:26;;;;;;;1.30;0.73;;;;;;;;;;4936477;29;20626;-64
2022/03/31 08:54:52;;;;;;;2.92;0.60;;;;;;;;;;4935183;29;20173;-64
2022/03/31 08:57:19;;;;;;;1.77;0.60;;;;;;;;;;4936839;29;20165;-64
2022/03/31 08:59:46;;;;;;;1.83;0.70;;;;;;;;;;4936486;29;20298;-64
2022/03/31 09:02:22;;;;;;;2.97;0.95;;;;;;;;;;4936628;29;20641;-65
2022/03/31 09:04:58;;;;;;;2.33;0.90;;;;;;;;;;4935977;29;20615;-64
2022/03/31 09:07:24;;;;;;;5.07;0.88;;;;;;;;;;4936448;29;20543;-64
2022/03/31 09:09:51;;;;;;;8.23;0.98;;;;;;;;;;4935976;29;20177;-64
2022/03/31 09:12:18;;;;;;;2.83;0.73;;;;;;;;;;4936365;29;20508;-64
2022/03/31 09:14:44;;;;;;;1.13;0.60;;;;;;;;;;4936087;29;20196;-63
2022/03/31 09:17:16;;;;;;;1.50;0.73;;;;;;;;;;4937678;29;20180;-63
2022/03/31 09:19:43;;;;;;;1.50;0.70;;;;;;;;;;4939624;29;20566;-63
2022/03/31 09:22:09;;;;;;;1.42;0.95;;;;;;;;;;4939955;29;20355;-64
2022/03/31 09:24:35;;;;;;;1.25;0.52;;;;;;;;;;4939676;29;20191;-64
2022/03/31 09:27:02;;;;;;;1.63;0.82;;;;;;;;;;4939510;29;20184;-63
2022/03/31 09:29:29;;;;;;;2.38;1.02;;;;;;;;;;4939671;29;20172;-64
2022/03/31 09:32:09;;;;;;;1.10;0.65;;;;;;;;;;4939332;29;20186;-64
2022/03/31 09:34:44;;;;;;;1.35;0.57;;;;;;;;;;4939393;29;20181;-63
2022/03/31 09:37:11;;;;;;;2.88;0.82;;;;;;;;;;4939752;29;20173;-64
2022/03/31 09:39:37;;;;;;;5.25;1.05;;;;;;;;;;4939505;29;20165;-64
2022/03/31 09:42:10;;;;;;;1.95;0.60;;;;;;;;;;4939451;29;20263;-64
2022/03/31 09:44:36;;;;;;;2.33;0.63;;;;;;;;;;4939309;29;20180;-64
2022/03/31 09:47:02;;;;;;;5.35;0.80;;;;;;;;;;4939317;29;20589;-63
2022/03/31 09:49:28;;;;;;;3.45;0.73;;;;;;;;;;4939077;29;20180;-62
2022/03/31 09:51:55;;;;;;;2.53;0.73;;;;;;;;;;4939329;29;20177;-64
2022/03/31 09:54:23;;;;;;;1.40;0.80;;;;;;;;;;4939261;29;20198;-63
2022/03/31 09:56:49;;;;;;;6.07;0.85;;;;;;;;;;4939311;29;20231;-62
2022/03/31 09:59:16;;;;;;;2.47;0.50;;;;;;;;;;4939324;29;20196;-62
2022/03/31 10:01:43;;;;;;;1.00;0.60;;;;;;;;;;4938927;29;20192;-64
2022/03/31 10:04:09;;;;;;;1.75;0.70;;;;;;;;;;4939397;29;20175;-64
2022/03/31 10:06:36;;;;;;;1.77;0.70;;;;;;;;;;4938833;29;20512;-62
2022/03/31 10:09:04;;;;;;;2.22;0.60;;;;;;;;;;4939084;29;20173;-63
2022/03/31 10:11:31;;;;;;;1.27;0.50;;;;;;;;;;4938777;29;20177;-63
2022/03/31 10:14:16;;;;;;;1.08;0.50;;;;;;;;;;4938825;29;20231;-63
2022/03/31 10:16:47;;;;;;;4.75;0.93;;;;;;;;;;4938548;29;20204;-62
2022/03/31 10:19:13;;;;;;;1.63;0.75;;;;;;;;;;4938723;29;20244;-62
2022/03/31 10:21:39;;;;;;;1.85;0.77;;;;;;;;;;4940930;29;20197;-63
2022/03/31 10:27:03;;;;;;;7.18;1.20;;;;;;;;;;4904729;29;20182;-63
2022/03/31 10:29:39;;;;;;;5.45;0.80;;;;;;;;;;4903834;29;20182;-63
2022/03/31 10:32:17;;;;;;;2.35;0.50;;;;;;;;;;4911612;29;20178;-64
2022/03/31 10:34:48;;;;;;;1.00;0.73;;;;;;;;;;4908221;29;20185;-63
2022/03/31 10:37:17;;;;;;;1.75;0.80;;;;;;;;;;4906338;29;20197;-63
2022/03/31 10:39:50;;;;;;;1.63;0.73;;;;;;;;;;4900532;29;20210;-64
2022/03/31 10:42:16;;;;;;;3.00;0.50;;;;;;;;;;4899523;29;20269;-64
2022/03/31 10:44:42;;;;;;;2.35;0.52;;;;;;;;;;4899534;29;20670;-63
2022/03/31 10:47:09;;;;;;;2.17;0.50;;;;;;;;;;4900451;29;20174;-64
2022/03/31 10:49:36;;;;;;;2.83;0.52;;;;;;;;;;4899789;29;20643;-63
2022/03/31 10:52:12;;;;;;;0.75;0.63;;;;;;;;;;4900682;29;20185;-64
2022/03/31 10:54:38;;;;;;;3.78;1.00;;;;;;;;;;4902200;29;20178;-64
2022/03/31 10:57:06;;;;;;;1.33;0.47;;;;;;;;;;4904464;29;20613;-64
2022/03/31 10:59:34;;;;;;;3.70;0.60;;;;;;;;;;4911157;29;20179;-64
2022/03/31 11:02:20;;;;;;;3.42;0.60;;;;;;;;;;4924373;29;20205;-64
2022/03/31 11:04:50;;;;;;;0.60;0.47;;;;;;;;;;4955379;29;20168;-64
2022/03/31 11:07:17;;;;;;;0.63;0.50;;;;;;;;;;4952779;29;20524;-64
2022/03/31 11:09:44;;;;;;;1.88;0.70;;;;;;;;;;4952279;29;20233;-64
2022/03/31 11:12:20;;;;;;;1.30;0.70;;;;;;;;;;4947867;29;20165;-64
2022/03/31 11:14:53;;;;;;;1.35;0.60;;;;;;;;;;4938300;29;20223;-64
2022/03/31 11:17:20;;;;;;;1.08;0.50;;;;;;;;;;4938268;29;20259;-64
2022/03/31 11:19:46;;;;;;;4.63;0.63;;;;;;;;;;4938201;29;20184;-63
2022/03/31 11:22:18;;;;;;;0.75;0.40;;;;;;;;;;4937775;29;20193;-64
2022/03/31 11:24:44;;;;;;;1.65;0.52;;;;;;;;;;4938703;29;20157;-63
2022/03/31 11:27:10;;;;;;;1.88;0.55;;;;;;;;;;4937879;29;20185;-63
2022/03/31 11:29:36;;;;;;;2.10;0.98;;;;;;;;;;4938009;29;20179;-64
2022/03/31 11:32:03;;;;;;;1.20;0.68;;;;;;;;;;4937802;29;20568;-64
2022/03/31 11:34:29;;;;;;;1.60;0.90;;;;;;;;;;4937486;29;20629;-64
2022/03/31 11:36:57;;;;;;;2.67;0.68;;;;;;;;;;4937295;29;20205;-64
2022/03/31 11:39:29;;;;;;;4.55;0.85;;;;;;;;;;4937582;29;20200;-64
2022/03/31 11:41:56;;;;;;;2.40;0.70;;;;;;;;;;4937409;29;20219;-64
2022/03/31 11:44:22;;;;;;;4.50;0.88;;;;;;;;;;4937388;29;20207;-63
2022/03/31 11:46:49;;;;;;;5.20;1.17;;;;;;;;;;4937753;29;20161;-63
2022/03/31 11:49:24;;;;;;;1.75;0.60;;;;;;;;;;4937302;29;20169;-64
2022/03/31 11:51:51;;;;;;;2.33;0.50;;;;;;;;;;4937099;29;20243;-64
2022/03/31 11:54:17;;;;;;;0.88;0.40;;;;;;;;;;4937033;29;20173;-64
2022/03/31 11:56:44;;;;;;;4.57;0.40;;;;;;;;;;4937160;29;20176;-63
2022/03/31 11:59:09;;;;;;;0.70;0.68;;;;;;;;;;4937306;29;20181;-62
2022/03/31 12:01:45;;;;;;;1.27;0.50;;;;;;;;;;4936800;29;20208;-63
2022/03/31 12:04:19;;;;;;;2.53;0.40;;;;;;;;;;4937089;29;20489;-63
2022/03/31 12:06:46;;;;;;;2.70;0.80;;;;;;;;;;4937194;29;20303;-63
2022/03/31 12:09:12;;;;;;;1.70;0.43;;;;;;;;;;4937273;29;20169;-62
2022/03/31 12:11:38;;;;;;;1.45;0.38;;;;;;;;;;4936692;29;20175;-63
2022/03/31 12:14:04;;;;;;;3.78;0.50;;;;;;;;;;4936824;29;20220;-62
2022/03/31 12:16:30;;;;;;;2.22;0.40;;;;;;;;;;4936742;29;20188;-62
2022/03/31 12:18:57;;;;;;;2.47;0.80;;;;;;;;;;4937126;29;20244;-63
2022/03/31 12:21:24;;;;;;;4.38;0.63;;;;;;;;;;4936483;29;20189;-64
2022/03/31 12:23:50;;;;;;;1.38;0.50;;;;;;;;;;4936791;29;20161;-64
2022/03/31 12:26:18;;;;;;;0.77;0.40;;;;;;;;;;4936435;29;20173;-64
2022/03/31 12:28:46;;;;;;;1.20;0.40;;;;;;;;;;4936561;29;20494;-64
2022/03/31 12:31:31;;;;;;;1.40;0.57;;;;;;;;;;4936649;29;20516;-63
2022/03/31 12:33:58;;;;;;;0.20;0.20;;;;;;;;;;4936683;29;20502;-63
2022/03/31 12:36:28;;;;;;;3.35;0.57;;;;;;;;;;4936620;29;20273;-63
2022/03/31 12:38:55;;;;;;;1.48;0.45;;;;;;;;;;4936669;29;20175;-63
2022/03/31 12:41:33;;;;;;;0.43;0.40;;;;;;;;;;4936859;29;20284;-63
2022/03/31 12:44:04;;;;;;;1.25;0.30;;;;;;;;;;4936872;29;20157;-63
2022/03/31 12:46:31;;;;;;;1.95;0.63;;;;;;;;;;4936382;29;20165;-63
2022/03/31 12:49:03;;;;;;;10.80;1.05;;;;;;;;;;4936923;29;20492;-63
2022/03/31 12:51:29;;;;;;;1.73;0.50;;;;;;;;;;4937308;29;20173;-63
2022/03/31 12:53:55;;;;;;;2.22;0.60;;;;;;;;;;4940599;29;20179;-63
2022/03/31 12:56:22;;;;;;;1.65;0.50;;;;;;;;;;4939310;29;20609;-64
2022/03/31 12:58:48;;;;;;;1.50;0.50;;;;;;;;;;4940348;29;20228;-64
2022/03/31 13:01:16;;;;;;;0.55;0.30;;;;;;;;;;4940423;29;20224;-64
2022/03/31 13:03:46;;;;;;;0.57;0.30;;;;;;;;;;4940503;29;20198;-64
2022/03/31 13:06:14;;;;;;;3.47;0.43;;;;;;;;;;4940390;29;20177;-63
2022/03/31 13:08:40;;;;;;;0.88;0.43;;;;;;;;;;4940115;29;20169;-63
2022/03/31 13:11:06;;;;;;;1.70;0.40;;;;;;;;;;4940132;29;20175;-64
2022/03/31 13:13:32;;;;;;;0.30;0.30;;;;;;;;;;4939790;29;20636;-64
2022/03/31 13:15:58;;;;;;;0.52;0.40;;;;;;;;;;4940289;29;20239;-63
2022/03/31 13:18:24;;;;;;;0.98;0.40;;;;;;;;;;4939763;29;20195;-63
2022/03/31 13:20:50;;;;;;;2.85;0.50;;;;;;;;;;4939980;29;20169;-63
2022/03/31 13:23:16;;;;;;;2.33;0.40;;;;;;;;;;4939632;29;20200;-64
2022/03/31 13:25:42;;;;;;;1.15;0.50;;;;;;;;;;4939740;29;20184;-63
2022/03/31 13:28:08;;;;;;;1.70;0.68;;;;;;;;;;4940243;29;20180;-63
2022/03/31 13:30:34;;;;;;;1.50;0.50;;;;;;;;;;4940060;29;20485;-64
2022/03/31 13:33:00;;;;;;;0.52;0.40;;;;;;;;;;4940060;29;20187;-63
2022/03/31 13:35:26;;;;;;;0.85;0.40;;;;;;;;;;4939907;29;20177;-63
2022/03/31 13:37:54;;;;;;;1.23;0.35;;;;;;;;;;4939980;29;20176;-64
2022/03/31 13:40:20;;;;;;;3.28;0.57;;;;;;;;;;4940265;29;20196;-64
2022/03/31 13:42:46;;;;;;;1.02;0.65;;;;;;;;;;4939814;29;20201;-64
2022/03/31 13:45:13;;;;;;;4.75;0.80;;;;;;;;;;4940279;29;20165;-65
2022/03/31 13:47:42;;;;;;;0.47;0.47;;;;;;;;;;4940023;29;20177;-62
2022/03/31 13:50:08;;;;;;;4.10;0.43;;;;;;;;;;4940097;29;20173;-64
2022/03/31 13:52:34;;;;;;;1.95;0.43;;;;;;;;;;4939870;29;20180;-63
2022/03/31 13:55:00;;;;;;;2.28;0.40;;;;;;;;;;4940039;29;20172;-64
2022/03/31 14:02:55;;;;;;;2.17;0.50;;;;;;;;;;4938209;29;20207;-63
2022/03/31 14:05:21;;;;;;;0.85;0.47;;;;;;;;;;4939393;29;20165;-63
2022/03/31 14:07:49;;;;;;;2.28;0.50;;;;;;;;;;4939392;29;20180;-63
2022/03/31 14:10:15;;;;;;;1.75;0.60;;;;;;;;;;4939291;29;20640;-64
2022/03/31 14:12:41;;;;;;;2.15;0.65;;;;;;;;;;4938081;29;20235;-63
2022/03/31 14:15:09;;;;;;;2.50;0.50;;;;;;;;;;4939287;29;20625;-64
2022/03/31 14:17:35;;;;;;;1.80;0.60;;;;;;;;;;4939144;29;20685;-63
2022/03/31 14:20:01;;;;;;;1.85;0.40;;;;;;;;;;4939567;29;20177;-62
2022/03/31 14:22:27;;;;;;;2.22;0.60;;;;;;;;;;4939068;29;20544;-64
2022/03/31 14:24:53;;;;;;;1.08;0.52;;;;;;;;;;4938944;29;20172;-64
2022/03/31 14:27:19;;;;;;;3.67;0.63;;;;;;;;;;4939386;29;20173;-64
2022/03/31 14:29:45;;;;;;;4.10;0.75;;;;;;;;;;4939150;29;20219;-64
2022/03/31 14:32:11;;;;;;;4.28;0.73;;;;;;;;;;4939096;29;20609;-64
2022/03/31 14:34:38;;;;;;;6.90;0.70;;;;;;;;;;4938681;29;20173;-65
2022/03/31 14:37:04;;;;;;;1.40;0.60;;;;;;;;;;4939285;29;20173;-65
2022/03/31 14:39:31;;;;;;;0.43;0.38;;;;;;;;;;4938984;29;20184;-64
2022/03/31 14:41:57;;;;;;;2.35;0.68;;;;;;;;;;4939025;29;20205;-65
2022/03/31 14:44:25;;;;;;;1.20;0.50;;;;;;;;;;4938924;29;20594;-64
2022/03/31 14:46:55;;;;;;;1.08;0.60;;;;;;;;;;4938956;29;20161;-65
2022/03/31 14:49:21;;;;;;;0.50;0.40;;;;;;;;;;4939047;29;20161;-65
2022/03/31 14:51:47;;;;;;;0.98;0.68;;;;;;;;;;4939002;29;20236;-64
2022/03/31 14:54:14;;;;;;;2.15;0.80;;;;;;;;;;4938678;29;20232;-64
2022/03/31 14:56:40;;;;;;;0.30;0.30;;;;;;;;;;4938621;29;20180;-63